Time;durP1;ratioP1;P1;durP2;ratioP2;P2;SDS_P1;SDS_P2;PMS_P1;PMS_P2;Temp;Humidity;BMP_temperature;BMP_pressure;BME280_temperature;BME280_humidity;BME280_pressure;Samples;Min_cycle;Max_cycle;Signal;HPM_P1;HPM_P2
2023/04/01 00:00:30;;;;;;;6.90;2.20;;;10.00;96.20;;;;;;5041487;28;20197;-85
2023/04/01 00:02:56;;;;;;;3.40;2.00;;;10.00;96.70;;;;;;5022583;28;20196;-85
2023/04/01 00:05:24;;;;;;;3.13;1.90;;;9.90;96.90;;;;;;5022979;28;20177;-84
2023/04/01 00:07:50;;;;;;;5.07;2.03;;;9.90;97.40;;;;;;5023131;28;20181;-85
2023/04/01 00:10:16;;;;;;;2.00;1.80;;;9.90;98.00;;;;;;5022800;28;20201;-86
2023/04/01 00:12:42;;;;;;;3.47;2.00;;;9.90;96.90;;;;;;5025143;28;20259;-84
2023/04/01 00:15:10;;;;;;;2.27;1.43;;;10.00;97.20;;;;;;5023463;28;20201;-83
2023/04/01 00:17:36;;;;;;;2.23;1.57;;;9.90;97.20;;;;;;5024933;28;20186;-84
2023/04/01 00:20:02;;;;;;;4.43;1.87;;;9.90;98.20;;;;;;5023906;28;20229;-85
2023/04/01 00:22:28;;;;;;;3.00;1.90;;;9.80;98.80;;;;;;5024266;28;20202;-84
2023/04/01 00:24:54;;;;;;;4.07;1.93;;;9.80;99.90;;;;;;5022778;28;20240;-82
2023/04/01 00:27:20;;;;;;;4.80;1.90;;;9.90;98.70;;;;;;5023082;28;20169;-84
2023/04/01 00:29:47;;;;;;;3.30;1.77;;;9.90;97.80;;;;;;5022080;28;20232;-83
2023/04/01 00:32:14;;;;;;;3.67;1.73;;;9.90;99.40;;;;;;5022654;28;20189;-85
2023/04/01 00:34:40;;;;;;;4.40;2.10;;;9.90;99.60;;;;;;5021268;28;20177;-86
2023/04/01 00:37:06;;;;;;;4.00;2.00;;;9.90;99.50;;;;;;5022351;28;20236;-87
2023/04/01 00:39:34;;;;;;;5.60;2.00;;;9.90;98.10;;;;;;5001820;28;20224;-84
2023/04/01 00:42:00;;;;;;;3.13;1.77;;;10.00;97.30;;;;;;5021394;28;20520;-86
2023/04/01 00:44:29;;;;;;;5.90;2.00;;;10.00;96.70;;;;;;5020089;28;20707;-84
2023/04/01 00:46:55;;;;;;;2.17;1.63;;;10.00;97.60;;;;;;5019690;28;20220;-84
2023/04/01 00:49:29;;;;;;;4.53;1.70;;;9.90;98.00;;;;;;5029485;28;20220;-84
2023/04/01 00:51:58;;;;;;;3.97;2.03;;;9.90;97.60;;;;;;5027242;28;20178;-84
2023/04/01 00:54:25;;;;;;;2.40;1.27;;;9.90;97.90;;;;;;5020600;28;20182;-86
2023/04/01 00:56:57;;;;;;;4.23;2.10;;;10.00;96.80;;;;;;5021049;28;20448;-84
2023/04/01 00:59:27;;;;;;;2.40;1.77;;;9.90;98.50;;;;;;5020061;28;20198;-85
2023/04/01 01:01:53;;;;;;;2.77;1.87;;;10.00;96.90;;;;;;5020803;28;20193;-90
2023/04/01 01:04:30;;;;;;;4.80;1.80;;;10.00;97.90;;;;;;5021004;28;20193;-86
2023/04/01 01:07:17;;;;;;;1.70;1.57;;;10.00;96.60;;;;;;5018972;28;20442;-86
2023/04/01 01:10:12;;;;;;;2.90;1.80;;;10.10;96.40;;;;;;5018442;28;20251;-84
2023/04/01 01:12:53;;;;;;;4.50;1.97;;;10.10;96.30;;;;;;5020018;28;20245;-82
2023/04/01 01:15:24;;;;;;;5.43;2.07;;;10.10;96.10;;;;;;5019723;28;20209;-86
2023/04/01 01:18:11;;;;;;;2.27;1.80;;;10.00;96.90;;;;;;5021269;28;20241;-85
2023/04/01 01:20:43;;;;;;;3.43;1.70;;;10.00;96.90;;;;;;5021091;28;20177;-84
2023/04/01 01:23:36;;;;;;;5.00;1.77;;;10.00;97.60;;;;;;5020497;28;20185;-85
2023/04/01 01:26:26;;;;;;;3.20;1.80;;;9.90;99.00;;;;;;5021065;28;20743;-87
2023/04/01 01:29:29;;;;;;;2.07;1.77;;;10.00;98.00;;;;;;5020681;28;20229;-87
2023/04/01 01:32:00;;;;;;;3.43;1.80;;;9.90;98.90;;;;;;5020708;28;20592;-86
2023/04/01 01:34:40;;;;;;;1.63;1.53;;;9.90;98.50;;;;;;5018844;28;20236;-84
2023/04/01 01:37:12;;;;;;;2.43;1.77;;;10.00;98.00;;;;;;5019328;28;20332;-84
2023/04/01 01:39:40;;;;;;;3.00;1.87;;;10.00;98.40;;;;;;5018051;28;20208;-84
2023/04/01 01:42:09;;;;;;;2.83;1.70;;;10.00;97.80;;;;;;5021307;28;20854;-85
2023/04/01 01:44:37;;;;;;;1.40;1.30;;;9.90;98.50;;;;;;5021005;28;20200;-84
2023/04/01 01:47:02;;;;;;;1.87;1.60;;;9.90;99.90;;;;;;5035975;28;20215;-88
2023/04/01 01:49:32;;;;;;;3.67;1.60;;;9.90;98.30;;;;;;5004040;28;20229;-86
2023/04/01 01:51:58;;;;;;;2.50;1.60;;;9.90;96.90;;;;;;5021199;28;20247;-88
2023/04/01 01:54:23;;;;;;;1.87;1.60;;;9.80;97.70;;;;;;5020551;28;20209;-85
2023/04/01 01:56:55;;;;;;;1.67;1.57;;;9.80;98.50;;;;;;5018893;28;20217;-85
2023/04/01 01:59:24;;;;;;;1.50;1.40;;;9.80;97.20;;;;;;5018710;28;20639;-85
2023/04/01 02:01:54;;;;;;;1.80;1.60;;;9.70;98.40;;;;;;5019364;28;20225;-86
2023/04/01 02:04:22;;;;;;;2.23;1.27;;;9.70;99.00;;;;;;5020207;28;20205;-86
2023/04/01 02:07:02;;;;;;;1.60;1.30;;;9.60;97.90;;;;;;5019235;28;20533;-85
2023/04/01 02:09:29;;;;;;;2.57;1.43;;;9.60;98.90;;;;;;5019933;28;20277;-87
2023/04/01 02:12:03;;;;;;;2.40;1.37;;;9.50;98.00;;;;;;5020975;28;20307;-86
2023/04/01 02:14:57;;;;;;;1.30;1.20;;;9.50;98.30;;;;;;5020658;28;20701;-84
2023/04/01 02:17:35;;;;;;;1.80;1.27;;;9.50;96.70;;;;;;5020593;28;20185;-84
2023/04/01 02:20:05;;;;;;;1.20;1.10;;;9.50;94.90;;;;;;5021101;28;20225;-84
2023/04/01 02:22:36;;;;;;;1.30;1.20;;;9.50;95.10;;;;;;5022719;28;20201;-87
2023/04/01 02:25:09;;;;;;;0.87;0.87;;;9.50;95.10;;;;;;5024796;28;20186;-89
2023/04/01 02:27:34;;;;;;;1.90;0.97;;;9.50;95.50;;;;;;5024236;28;20240;-89
2023/04/01 02:30:00;;;;;;;0.87;0.87;;;9.50;96.00;;;;;;5023700;28;20205;-86
2023/04/01 02:32:27;;;;;;;1.00;1.00;;;9.50;95.00;;;;;;5000842;28;20196;-87
2023/04/01 02:34:53;;;;;;;1.45;1.00;;;9.40;95.80;;;;;;5017540;28;20182;-88
2023/04/01 02:37:20;;;;;;;1.20;1.10;;;9.40;96.80;;;;;;5018487;28;20255;-84
2023/04/01 02:39:45;;;;;;;1.00;1.00;;;9.40;95.70;;;;;;5018917;28;20687;-87
2023/04/01 02:42:11;;;;;;;1.37;0.97;;;9.40;96.00;;;;;;5018995;28;20251;-85
2023/04/01 02:44:37;;;;;;;1.20;1.10;;;9.30;96.10;;;;;;5026442;28;20595;-86
2023/04/01 02:47:02;;;;;;;0.90;0.90;;;9.30;96.80;;;;;;5018615;28;20267;-85
2023/04/01 02:49:28;;;;;;;1.90;1.10;;;9.40;96.10;;;;;;5029401;28;20436;-87
2023/04/01 02:51:54;;;;;;;1.27;1.17;;;9.40;95.40;;;;;;5039449;28;20564;-85
2023/04/01 02:54:19;;;;;;;1.57;1.10;;;9.40;95.90;;;;;;5038567;28;20180;-85
2023/04/01 02:56:45;;;;;;;2.20;1.10;;;9.40;94.90;;;;;;5036926;28;20201;-84
2023/04/01 02:59:11;;;;;;;1.10;1.00;;;9.50;95.20;;;;;;5006662;28;20476;-86
2023/04/01 03:01:37;;;;;;;2.20;1.30;;;9.40;94.00;;;;;;5022129;28;20182;-84
2023/04/01 03:04:03;;;;;;;3.43;1.30;;;9.50;94.50;;;;;;5021961;28;20177;-84
2023/04/01 03:06:28;;;;;;;1.40;1.20;;;9.40;95.40;;;;;;5021329;28;20192;-84
2023/04/01 03:08:54;;;;;;;2.37;1.40;;;9.40;95.00;;;;;;5003512;28;20205;-89
2023/04/01 03:11:21;;;;;;;1.70;1.00;;;9.40;95.20;;;;;;5000755;28;20193;-86
2023/04/01 03:13:46;;;;;;;1.60;1.33;;;9.40;96.00;;;;;;5018374;28;20201;-85
2023/04/01 03:16:12;;;;;;;1.57;1.00;;;9.40;94.70;;;;;;5019013;28;20209;-85
2023/04/01 03:18:38;;;;;;;1.33;1.23;;;9.40;94.10;;;;;;5020979;28;20251;-87
2023/04/01 03:21:15;;;;;;;1.67;1.13;;;9.50;94.40;;;;;;5020022;28;20543;-85
2023/04/01 03:23:40;;;;;;;1.10;1.10;;;9.40;94.50;;;;;;5018834;28;20689;-86
2023/04/01 03:26:06;;;;;;;1.40;1.30;;;9.50;94.10;;;;;;5017203;28;20189;-85
2023/04/01 03:28:31;;;;;;;1.53;1.20;;;9.50;94.80;;;;;;5018126;28;20204;-85
2023/04/01 03:30:57;;;;;;;2.07;1.10;;;9.40;94.80;;;;;;5016494;28;20197;-86
2023/04/01 03:33:23;;;;;;;1.73;1.33;;;9.40;94.70;;;;;;5016697;28;20193;-85
2023/04/01 03:35:51;;;;;;;1.40;1.30;;;9.40;93.40;;;;;;4998992;28;20526;-85
2023/04/01 03:38:17;;;;;;;2.03;1.10;;;9.50;93.90;;;;;;5019701;28;20178;-85
2023/04/01 03:40:44;;;;;;;2.70;1.70;;;9.50;93.90;;;;;;5026276;28;20188;-85
2023/04/01 03:43:10;;;;;;;1.97;1.30;;;9.50;93.00;;;;;;5018742;28;20660;-84
2023/04/01 03:45:42;;;;;;;1.73;1.23;;;9.50;93.90;;;;;;5016245;28;20205;-87
2023/04/01 03:48:08;;;;;;;3.57;1.67;;;9.50;92.90;;;;;;4998581;28;20659;-87
2023/04/01 03:50:34;;;;;;;2.33;1.50;;;9.50;92.90;;;;;;4998058;28;20229;-89
2023/04/01 03:53:00;;;;;;;2.43;1.37;;;9.50;93.40;;;;;;4998887;28;20174;-87
2023/04/01 03:55:25;;;;;;;2.60;1.70;;;9.50;94.00;;;;;;4997385;28;20300;-86
2023/04/01 03:57:51;;;;;;;2.47;1.67;;;9.50;93.00;;;;;;4997067;28;20201;-84
2023/04/01 04:00:17;;;;;;;1.90;1.30;;;9.50;93.90;;;;;;4998277;28;20228;-88
2023/04/01 04:02:43;;;;;;;5.37;1.63;;;9.50;93.70;;;;;;5006873;28;20216;-85
2023/04/01 04:05:09;;;;;;;2.67;1.53;;;9.60;93.00;;;;;;5018725;28;20194;-87
2023/04/01 04:07:35;;;;;;;3.70;1.67;;;9.60;92.80;;;;;;5017726;28;20668;-85
2023/04/01 04:10:01;;;;;;;2.43;1.60;;;9.60;93.50;;;;;;5017409;28;20228;-87
2023/04/01 04:12:26;;;;;;;2.77;1.70;;;9.60;94.40;;;;;;5017976;28;20188;-84
2023/04/01 04:14:52;;;;;;;2.50;2.00;;;9.60;93.20;;;;;;5000372;28;20242;-84
2023/04/01 04:17:17;;;;;;;3.67;1.90;;;9.60;93.00;;;;;;5021703;28;20209;-85
2023/04/01 04:19:43;;;;;;;3.77;1.97;;;9.70;93.30;;;;;;5022424;28;20572;-86
2023/04/01 04:22:09;;;;;;;4.27;1.73;;;9.60;93.30;;;;;;5022146;28;20227;-87
2023/04/01 04:24:35;;;;;;;2.43;1.80;;;9.70;94.50;;;;;;5020853;28;20185;-85
2023/04/01 04:27:01;;;;;;;3.63;1.97;;;9.70;93.30;;;;;;5020853;28;20220;-85
2023/04/01 04:29:27;;;;;;;3.23;2.00;;;9.70;93.80;;;;;;5020071;28;20217;-85
2023/04/01 04:31:52;;;;;;;3.53;2.10;;;9.60;93.30;;;;;;5021295;28;20197;-87
2023/04/01 04:34:18;;;;;;;7.00;2.20;;;9.70;93.80;;;;;;5022425;28;20212;-87
2023/04/01 04:36:44;;;;;;;2.97;1.97;;;9.60;93.60;;;;;;5030112;28;20205;-85
2023/04/01 04:39:10;;;;;;;3.37;2.00;;;9.70;93.10;;;;;;5025091;28;20209;-85
2023/04/01 04:41:37;;;;;;;4.50;1.63;;;9.70;92.90;;;;;;5020973;28;20249;-84
2023/04/01 04:44:03;;;;;;;3.83;2.00;;;9.70;93.80;;;;;;5021386;28;20209;-85
2023/04/01 04:46:29;;;;;;;3.30;1.83;;;9.70;92.90;;;;;;5020755;28;20236;-86
2023/04/01 04:48:55;;;;;;;4.77;2.00;;;9.70;93.60;;;;;;5019920;28;20726;-89
2023/04/01 04:51:22;;;;;;;4.63;1.97;;;9.70;93.20;;;;;;5020873;28;20192;-86
2023/04/01 04:53:48;;;;;;;3.33;1.83;;;9.80;92.70;;;;;;5020553;28;20192;-85
2023/04/01 04:56:18;;;;;;;3.63;1.93;;;9.80;92.60;;;;;;5020198;28;20701;-86
2023/04/01 04:58:44;;;;;;;3.83;1.80;;;9.70;93.60;;;;;;5018887;28;20204;-89
2023/04/01 05:01:13;;;;;;;3.70;1.97;;;9.70;92.90;;;;;;5022316;28;20220;-85
2023/04/01 05:03:39;;;;;;;2.37;1.87;;;9.70;93.20;;;;;;5021210;28;20196;-83
2023/04/01 05:06:06;;;;;;;4.27;1.80;;;9.70;92.70;;;;;;5021639;28;20178;-85
2023/04/01 05:08:32;;;;;;;4.13;2.00;;;9.60;93.60;;;;;;5021386;28;20566;-88
2023/04/01 05:10:58;;;;;;;1.93;1.70;;;9.60;93.40;;;;;;5022172;28;20186;-85
2023/04/01 05:13:24;;;;;;;3.27;1.80;;;9.70;93.60;;;;;;5021638;28;20585;-85
2023/04/01 05:15:50;;;;;;;5.07;1.63;;;9.60;93.40;;;;;;5021546;28;20205;-83
2023/04/01 05:18:16;;;;;;;1.83;1.67;;;9.50;94.70;;;;;;5021179;28;20620;-85
2023/04/01 05:20:52;;;;;;;2.80;1.60;;;9.60;91.80;;;;;;5021265;28;20181;-83
2023/04/01 05:23:20;;;;;;;2.70;1.60;;;9.60;92.70;;;;;;5019878;28;20241;-89
2023/04/01 05:25:47;;;;;;;2.20;1.23;;;9.70;92.60;;;;;;5020252;28;20182;-89
2023/04/01 05:28:12;;;;;;;3.13;1.33;;;9.50;92.90;;;;;;5021234;28;20200;-85
2023/04/01 05:30:41;;;;;;;3.17;1.43;;;9.50;96.00;;;;;;5024149;28;20647;-89
2023/04/01 05:33:07;;;;;;;3.97;1.23;;;9.40;95.40;;;;;;5024434;28;20231;-85
2023/04/01 05:35:33;;;;;;;1.20;1.10;;;9.40;96.10;;;;;;5021641;28;20212;-89
2023/04/01 05:37:58;;;;;;;2.03;1.50;;;9.30;95.70;;;;;;5025222;28;20190;-83
2023/04/01 05:40:24;;;;;;;3.60;1.50;;;9.20;99.10;;;;;;5026057;28;20201;-84
2023/04/01 05:42:50;;;;;;;4.30;1.10;;;9.10;99.90;;;;;;5022778;28;20190;-85
2023/04/01 05:45:16;;;;;;;2.57;1.40;;;9.10;99.90;;;;;;5008074;28;20281;-81
2023/04/01 05:47:42;;;;;;;2.20;1.43;;;9.00;99.90;;;;;;5027011;28;20232;-89
2023/04/01 05:50:10;;;;;;;1.87;1.33;;;9.00;99.90;;;;;;5022936;28;20270;-86
2023/04/01 05:52:36;;;;;;;1.97;1.60;;;9.00;99.90;;;;;;5041724;28;20565;-82
2023/04/01 05:55:02;;;;;;;3.67;1.70;;;9.00;99.90;;;;;;5035494;28;20220;-87
2023/04/01 05:57:27;;;;;;;2.93;1.83;;;8.90;99.90;;;;;;5025289;28;20188;-88
2023/04/01 05:59:53;;;;;;;1.37;1.27;;;8.80;99.90;;;;;;5024288;28;20216;-84
2023/04/01 06:02:19;;;;;;;3.77;1.90;;;8.90;99.90;;;;;;5024365;28;20209;-84
2023/04/01 06:04:45;;;;;;;3.53;1.50;;;8.80;99.90;;;;;;5025048;28;20688;-85
2023/04/01 06:07:16;;;;;;;1.87;1.53;;;8.90;99.90;;;;;;5023972;28;20217;-85
2023/04/01 06:09:42;;;;;;;1.60;1.50;;;8.70;99.90;;;;;;5022888;28;20210;-85
2023/04/01 06:12:43;;;;;;;3.57;1.40;;;8.80;99.90;;;;;;5023917;28;20200;-88
2023/04/01 06:15:32;;;;;;;2.57;1.40;;;8.80;99.90;;;;;;4960761;28;20199;-86
2023/04/01 06:18:15;;;;;;;2.20;1.50;;;8.90;99.90;;;;;;5003189;28;20208;-87
2023/04/01 06:20:52;;;;;;;2.00;1.40;;;8.80;99.90;;;;;;5011724;28;20172;-86
2023/04/01 06:23:26;;;;;;;3.60;1.50;;;8.90;99.90;;;;;;5021711;28;20495;-83
2023/04/01 06:26:13;;;;;;;2.50;1.73;;;8.90;99.90;;;;;;5022789;28;20178;-81
2023/04/01 06:29:03;;;;;;;1.70;1.47;;;8.80;99.90;;;;;;5022892;28;20213;-86
2023/04/01 06:31:53;;;;;;;1.57;1.40;;;8.80;99.90;;;;;;5023737;28;20224;-84
2023/04/01 06:34:33;;;;;;;4.60;1.60;;;8.80;99.90;;;;;;5024581;28;20208;-83
2023/04/01 06:37:05;;;;;;;2.90;1.57;;;8.80;99.90;;;;;;5023668;28;20220;-84
2023/04/01 06:39:43;;;;;;;2.07;1.40;;;8.80;99.90;;;;;;5022761;28;20722;-84
2023/04/01 06:42:50;;;;;;;3.77;1.70;;;8.80;99.90;;;;;;5024667;28;20161;-84
2023/04/01 06:45:30;;;;;;;3.33;1.23;;;8.80;99.90;;;;;;4987593;28;20690;-84
2023/04/01 06:48:17;;;;;;;5.00;1.80;;;8.80;99.90;;;;;;5022899;28;20187;-84
2023/04/01 06:51:09;;;;;;;4.53;1.83;;;8.80;99.90;;;;;;5020618;28;20186;-85
2023/04/01 06:53:45;;;;;;;3.23;1.40;;;8.80;99.90;;;;;;5012292;28;20528;-85
2023/04/01 06:56:18;;;;;;;2.10;1.67;;;8.80;99.90;;;;;;5021514;28;20197;-84
2023/04/01 06:58:52;;;;;;;2.47;1.60;;;8.80;99.90;;;;;;5022796;28;20233;-81
2023/04/01 07:01:26;;;;;;;3.30;2.07;;;8.80;99.90;;;;;;5021717;28;20159;-86
2023/04/01 07:03:56;;;;;;;1.80;1.40;;;8.90;99.90;;;;;;5021379;28;20177;-84
2023/04/01 07:06:35;;;;;;;3.90;1.90;;;8.90;99.90;;;;;;5020904;28;20169;-81
2023/04/01 07:09:06;;;;;;;3.87;1.77;;;8.80;99.90;;;;;;5021649;28;20205;-84
2023/04/01 07:11:35;;;;;;;4.07;2.10;;;8.90;99.90;;;;;;5022895;28;20189;-86
2023/04/01 07:14:07;;;;;;;2.10;1.50;;;8.80;99.90;;;;;;5021299;28;20201;-85
2023/04/01 07:16:47;;;;;;;3.70;1.63;;;8.80;99.90;;;;;;5019116;28;20205;-83
2023/04/01 07:19:29;;;;;;;5.30;2.03;;;8.90;99.90;;;;;;5019300;28;20205;-91
2023/04/01 07:21:57;;;;;;;2.97;1.60;;;8.80;99.90;;;;;;5020186;28;20166;-88
2023/04/01 07:24:43;;;;;;;5.40;1.90;;;8.90;99.90;;;;;;5005953;28;20192;-83
2023/04/01 07:27:11;;;;;;;3.67;2.13;;;8.80;99.90;;;;;;5006572;28;20197;-88
2023/04/01 07:29:37;;;;;;;3.47;2.00;;;8.90;99.90;;;;;;5021064;28;20212;-85
2023/04/01 07:32:15;;;;;;;4.37;2.07;;;8.80;99.90;;;;;;5021832;28;20205;-86
2023/04/01 07:34:59;;;;;;;5.30;2.30;;;8.80;99.90;;;;;;5021223;28;20252;-86
2023/04/01 07:37:46;;;;;;;4.70;2.27;;;8.70;99.90;;;;;;5020999;28;20317;-84
2023/04/01 07:40:43;;;;;;;2.93;2.00;;;8.70;99.90;;;;;;5015189;28;20656;-90
2023/04/01 07:43:09;;;;;;;2.53;1.67;;;8.70;99.90;;;;;;5006852;28;20193;-87
2023/04/01 07:45:59;;;;;;;4.03;2.10;;;8.70;99.90;;;;;;5010929;28;20185;-87
2023/04/01 07:49:03;;;;;;;6.63;2.40;;;8.70;99.90;;;;;;5010251;28;20184;-90
2023/04/01 07:51:36;;;;;;;1.90;1.70;;;8.70;99.90;;;;;;5014438;28;20185;-89
2023/04/01 07:54:05;;;;;;;4.17;1.87;;;8.70;99.90;;;;;;5012929;28;20211;-84
2023/04/01 07:57:01;;;;;;;3.27;2.17;;;8.70;99.90;;;;;;5015588;28;20720;-87
2023/04/01 08:00:11;;;;;;;3.07;1.93;;;8.70;99.90;;;;;;5014376;28;20224;-85
2023/04/01 08:03:14;;;;;;;3.83;1.80;;;8.70;99.90;;;;;;5020634;28;20193;-88
2023/04/01 08:06:26;;;;;;;3.83;1.90;;;8.80;99.90;;;;;;5015062;28;20189;-90
2023/04/01 08:09:10;;;;;;;3.47;2.10;;;8.80;99.90;;;;;;4995381;28;20228;-88
2023/04/01 08:11:35;;;;;;;6.97;2.20;;;8.90;99.90;;;;;;5014555;28;20199;-86
2023/04/01 08:14:04;;;;;;;3.83;2.13;;;9.00;99.90;;;;;;5015677;28;20181;-87
2023/04/01 08:16:41;;;;;;;4.63;2.30;;;9.10;99.90;;;;;;5012276;28;20217;-89
2023/04/01 08:19:21;;;;;;;4.33;2.00;;;9.20;99.90;;;;;;5011530;28;20209;-88
2023/04/01 08:21:54;;;;;;;2.77;1.97;;;9.20;99.90;;;;;;5012013;28;20170;-87
2023/04/01 08:24:42;;;;;;;3.47;1.87;;;9.10;99.90;;;;;;5016572;28;20269;-91
2023/04/01 08:27:22;;;;;;;5.83;2.13;;;9.10;99.90;;;;;;5019498;28;20172;-89
2023/04/01 08:30:02;;;;;;;3.20;1.77;;;9.20;99.90;;;;;;5015817;28;20213;-93
2023/04/01 08:32:37;;;;;;;3.00;1.83;;;9.20;99.90;;;;;;5001502;28;20185;-88
2023/04/01 08:35:36;;;;;;;4.97;2.10;;;9.20;99.90;;;;;;5022575;28;20181;-86
2023/04/01 08:38:12;;;;;;;2.60;1.80;;;9.30;99.90;;;;;;5013941;28;20184;-83
2023/04/01 08:40:56;;;;;;;2.73;1.60;;;9.20;99.90;;;;;;5024902;28;20209;-89
2023/04/01 08:43:48;;;;;;;1.87;1.60;;;9.20;99.90;;;;;;5006535;28;20167;-86
2023/04/01 08:46:40;;;;;;;2.80;1.80;;;9.20;99.90;;;;;;5007643;28;20179;-84
2023/04/01 08:49:27;;;;;;;5.60;1.83;;;9.10;99.90;;;;;;4976924;28;20298;-86
2023/04/01 08:52:07;;;;;;;3.87;1.80;;;9.10;99.90;;;;;;5049014;28;20212;-85
2023/04/01 08:54:45;;;;;;;3.47;1.67;;;9.20;99.90;;;;;;5030978;28;20181;-87
2023/04/01 08:57:17;;;;;;;3.67;1.70;;;9.20;99.90;;;;;;5024599;28;20220;-85
2023/04/01 09:00:04;;;;;;;3.07;1.83;;;9.20;99.90;;;;;;5025926;28;20213;-87
2023/04/01 09:02:58;;;;;;;2.67;1.77;;;9.20;99.90;;;;;;5026151;28;20170;-82
2023/04/01 09:05:36;;;;;;;2.37;1.80;;;9.30;99.90;;;;;;5025330;28;20193;-84
2023/04/01 09:08:21;;;;;;;3.60;1.80;;;9.30;99.90;;;;;;5024509;28;20197;-87
2023/04/01 09:10:56;;;;;;;2.23;1.70;;;9.30;99.90;;;;;;5025656;28;20185;-84
2023/04/01 09:13:31;;;;;;;3.93;1.77;;;9.30;99.90;;;;;;5012123;28;20310;-84
2023/04/01 09:16:16;;;;;;;1.70;1.60;;;9.20;99.90;;;;;;5014751;28;20661;-88
2023/04/01 09:19:09;;;;;;;2.57;1.67;;;9.30;99.90;;;;;;5020254;28;20213;-89
2023/04/01 09:21:43;;;;;;;2.23;1.70;;;9.30;99.90;;;;;;5025668;28;20170;-88
2023/04/01 09:24:36;;;;;;;2.60;1.63;;;9.30;99.90;;;;;;5023976;28;20192;-86
2023/04/01 09:27:26;;;;;;;2.63;1.80;;;9.30;99.90;;;;;;5023822;28;20190;-86
2023/04/01 09:29:57;;;;;;;1.97;1.47;;;9.40;99.90;;;;;;5023876;28;20213;-85
2023/04/01 09:32:42;;;;;;;2.10;1.67;;;9.30;99.90;;;;;;5023974;28;20189;-85
2023/04/01 09:35:29;;;;;;;2.30;1.77;;;9.30;99.90;;;;;;5011898;28;20181;-85
2023/04/01 09:38:31;;;;;;;3.03;2.00;;;9.30;99.90;;;;;;5022595;28;20258;-88
2023/04/01 09:41:19;;;;;;;2.50;1.80;;;9.30;99.90;;;;;;5025489;28;20244;-86
2023/04/01 09:44:02;;;;;;;3.07;1.90;;;9.30;99.90;;;;;;5024596;28;20185;-86
2023/04/01 09:47:10;;;;;;;4.13;1.83;;;9.40;99.90;;;;;;5023511;28;20185;-86
2023/04/01 09:50:06;;;;;;;1.93;1.53;;;9.40;99.90;;;;;;5034353;28;20224;-83
2023/04/01 09:52:54;;;;;;;2.07;1.57;;;9.40;99.90;;;;;;5024962;28;20248;-87
2023/04/01 09:55:54;;;;;;;2.20;1.50;;;9.40;99.90;;;;;;5022010;28;20265;-84
2023/04/01 09:58:38;;;;;;;1.60;1.50;;;9.30;99.90;;;;;;5007521;28;20691;-86
2023/04/01 10:01:28;;;;;;;1.40;1.30;;;9.30;99.90;;;;;;5022381;28;20186;-82
2023/04/01 10:04:24;;;;;;;1.50;1.40;;;9.30;99.90;;;;;;5022791;28;20186;-87
2023/04/01 10:07:09;;;;;;;2.47;1.50;;;9.30;99.90;;;;;;5021606;28;20190;-91
2023/04/01 10:09:56;;;;;;;1.60;1.40;;;9.40;99.90;;;;;;5021316;28;20205;-86
2023/04/01 10:12:49;;;;;;;1.43;1.33;;;9.40;99.90;;;;;;5029965;28;20199;-89
2023/04/01 10:15:29;;;;;;;3.47;1.60;;;9.40;99.90;;;;;;5019378;28;20186;-88
2023/04/01 10:18:07;;;;;;;2.53;1.43;;;9.30;99.90;;;;;;5022391;28;20201;-89
2023/04/01 10:20:46;;;;;;;1.60;1.50;;;9.40;99.90;;;;;;5023013;28;20620;-86
2023/04/01 10:24:12;;;;;;;2.93;1.57;;;9.50;99.90;;;;;;5023659;28;20257;-88
2023/04/01 10:27:34;;;;;;;1.50;1.40;;;9.50;99.90;;;;;;4981062;28;20257;-87
2023/04/01 10:30:21;;;;;;;3.37;1.60;;;9.50;99.90;;;;;;4940438;28;20251;-87
2023/04/01 10:32:55;;;;;;;1.63;1.53;;;9.50;99.90;;;;;;5003883;28;20234;-84
2023/04/01 10:35:59;;;;;;;1.37;1.20;;;9.40;99.90;;;;;;5013251;28;20192;-86
2023/04/01 10:38:42;;;;;;;2.50;1.90;;;9.30;99.90;;;;;;5023119;28;20195;-83
2023/04/01 10:41:20;;;;;;;1.70;1.60;;;9.40;99.90;;;;;;5023342;28;20169;-86
2023/04/01 10:44:23;;;;;;;1.90;1.50;;;9.40;99.90;;;;;;5009472;28;20173;-81
2023/04/01 10:47:26;;;;;;;2.30;1.80;;;9.40;99.90;;;;;;5023295;28;20189;-83
2023/04/01 10:50:23;;;;;;;2.97;1.40;;;9.50;99.90;;;;;;5029316;28;20231;-84
2023/04/01 10:53:26;;;;;;;2.77;1.57;;;9.50;99.90;;;;;;5023548;28;20194;-86
2023/04/01 10:56:20;;;;;;;1.50;1.40;;;9.50;99.90;;;;;;5009244;28;20209;-80
2023/04/01 10:59:10;;;;;;;1.50;1.43;;;9.50;99.90;;;;;;5022707;28;20217;-83
2023/04/01 11:01:39;;;;;;;2.07;1.30;;;9.50;99.90;;;;;;5021229;28;20197;-87
2023/04/01 11:04:26;;;;;;;2.00;1.40;;;9.40;99.90;;;;;;5021839;28;20186;-84
2023/04/01 11:07:01;;;;;;;2.03;1.60;;;9.40;99.90;;;;;;5021628;28;20186;-85
2023/04/01 11:10:07;;;;;;;1.77;1.63;;;9.40;99.90;;;;;;5020498;28;20212;-85
2023/04/01 11:13:18;;;;;;;1.57;1.47;;;9.30;99.90;;;;;;5020508;28;20189;-86
2023/04/01 11:15:53;;;;;;;2.20;1.67;;;9.40;99.90;;;;;;5006187;28;20281;-85
2023/04/01 11:18:47;;;;;;;2.30;1.80;;;9.40;99.90;;;;;;5009230;28;20819;-84
2023/04/01 11:21:37;;;;;;;2.70;1.87;;;9.40;99.90;;;;;;5002421;28;20266;-85
2023/04/01 11:24:11;;;;;;;1.77;1.67;;;9.50;99.90;;;;;;5020807;28;20643;-86
2023/04/01 11:27:11;;;;;;;2.00;1.80;;;9.40;99.90;;;;;;5026371;28;20184;-83
2023/04/01 11:30:04;;;;;;;3.73;1.80;;;9.50;99.90;;;;;;4987711;28;20232;-88
2023/04/01 11:32:42;;;;;;;1.50;1.40;;;9.50;99.90;;;;;;5024610;28;20174;-85
2023/04/01 11:35:28;;;;;;;2.47;1.50;;;9.50;99.90;;;;;;5006740;28;20174;-85
2023/04/01 11:37:54;;;;;;;1.63;1.43;;;9.50;99.90;;;;;;5003472;28;20328;-85
2023/04/01 11:40:58;;;;;;;2.60;1.50;;;9.50;99.90;;;;;;5007065;28;20221;-84
2023/04/01 11:43:34;;;;;;;1.40;1.30;;;9.50;99.90;;;;;;5006626;28;20193;-83
2023/04/01 11:46:22;;;;;;;1.57;1.47;;;9.50;99.90;;;;;;5008064;28;20189;-83
2023/04/01 11:49:18;;;;;;;1.63;1.50;;;9.50;99.90;;;;;;5007251;28;20214;-85
2023/04/01 11:51:56;;;;;;;1.50;1.30;;;9.60;99.90;;;;;;5007718;28;20186;-83
2023/04/01 11:54:47;;;;;;;1.20;1.10;;;9.60;99.90;;;;;;5008215;28;20167;-84
2023/04/01 11:57:53;;;;;;;1.40;1.30;;;9.50;99.90;;;;;;5018158;28;20227;-86
2023/04/01 12:00:46;;;;;;;2.67;1.60;;;9.60;99.90;;;;;;5028271;28;20652;-88
2023/04/01 12:03:33;;;;;;;1.50;1.40;;;9.70;99.90;;;;;;5026086;28;20193;-86
2023/04/01 12:06:08;;;;;;;1.53;1.40;;;9.50;99.90;;;;;;5012608;28;20177;-83
2023/04/01 12:08:59;;;;;;;1.17;1.13;;;9.60;99.90;;;;;;5026445;28;20197;-89
2023/04/01 12:11:36;;;;;;;1.23;1.23;;;9.60;99.90;;;;;;5023315;28;20197;-89
2023/04/01 12:14:25;;;;;;;1.03;1.03;;;9.60;99.90;;;;;;5025726;28;20201;-87
2023/04/01 12:16:56;;;;;;;1.10;1.10;;;9.50;99.90;;;;;;5024323;28;20205;-86
2023/04/01 12:19:43;;;;;;;1.37;1.27;;;9.50;99.90;;;;;;5025451;28;20313;-86
2023/04/01 12:22:26;;;;;;;3.13;1.63;;;9.60;99.90;;;;;;5024140;28;20173;-88
2023/04/01 12:25:21;;;;;;;1.10;1.10;;;9.50;99.90;;;;;;5017076;28;20177;-84
2023/04/01 12:28:01;;;;;;;1.40;1.30;;;9.50;99.90;;;;;;5008627;28;20668;-84
2023/04/01 12:30:56;;;;;;;1.70;1.60;;;9.60;99.90;;;;;;5009234;28;20209;-87
2023/04/01 12:33:30;;;;;;;1.83;1.37;;;9.60;99.90;;;;;;5005870;28;20209;-87
2023/04/01 12:36:29;;;;;;;2.87;1.40;;;9.60;99.90;;;;;;5021934;28;20201;-84
2023/04/01 12:39:20;;;;;;;1.47;1.43;;;9.60;99.90;;;;;;5022143;28;20198;-88
2023/04/01 12:42:16;;;;;;;1.43;1.37;;;9.60;99.90;;;;;;5022198;28;20181;-90
2023/04/01 12:44:49;;;;;;;3.47;1.53;;;9.60;99.90;;;;;;5020612;28;20189;-88
2023/04/01 12:48:00;;;;;;;1.20;1.20;;;9.50;99.90;;;;;;5021362;28;20189;-86
2023/04/01 12:50:47;;;;;;;1.43;1.33;;;9.50;99.90;;;;;;5025303;28;20245;-86
2023/04/01 12:53:15;;;;;;;1.70;1.60;;;9.60;99.90;;;;;;5006519;28;20205;-85
2023/04/01 12:55:44;;;;;;;1.20;1.20;;;9.60;99.90;;;;;;5019778;28;20213;-84
2023/04/01 12:58:34;;;;;;;1.30;1.30;;;9.60;99.90;;;;;;5002590;28;20289;-87
2023/04/01 13:01:37;;;;;;;1.13;1.13;;;9.70;99.90;;;;;;5029421;28;20193;-85
2023/04/01 13:04:06;;;;;;;1.03;0.80;;;9.70;99.90;;;;;;5018859;28;20939;-85
2023/04/01 13:06:54;;;;;;;1.53;1.30;;;9.70;99.90;;;;;;5021856;28;20181;-82
2023/04/01 13:09:25;;;;;;;1.10;1.10;;;9.70;99.90;;;;;;4995813;28;20216;-84
2023/04/01 13:12:09;;;;;;;1.40;1.30;;;9.80;99.90;;;;;;5021010;28;20269;-86
2023/04/01 13:15:12;;;;;;;2.73;1.30;;;9.90;99.90;;;;;;5021535;28;20166;-90
2023/04/01 13:17:53;;;;;;;1.80;1.40;;;10.00;99.90;;;;;;4999352;28;20193;-86
2023/04/01 13:20:47;;;;;;;1.50;1.40;;;9.90;99.90;;;;;;5000661;28;20205;-85
2023/04/01 13:23:50;;;;;;;2.40;1.50;;;9.90;99.90;;;;;;4965116;28;20190;-85
2023/04/01 13:26:27;;;;;;;1.73;1.63;;;9.90;99.90;;;;;;5001923;28;20182;-87
2023/04/01 13:29:14;;;;;;;1.63;1.30;;;9.90;99.90;;;;;;5001935;28;20208;-88
2023/04/01 13:32:00;;;;;;;1.77;1.60;;;9.70;99.90;;;;;;5006343;28;20177;-88
2023/04/01 13:34:47;;;;;;;1.47;1.20;;;9.70;99.90;;;;;;5021670;28;20748;-88
2023/04/01 13:37:36;;;;;;;1.53;1.30;;;9.70;99.90;;;;;;5022347;28;20204;-88
2023/04/01 13:40:21;;;;;;;1.60;1.40;;;9.60;99.90;;;;;;5010100;28;20300;-88
2023/04/01 13:43:01;;;;;;;4.03;1.90;;;9.60;99.90;;;;;;4995620;28;20232;-86
2023/04/01 13:45:46;;;;;;;1.40;1.40;;;9.50;99.90;;;;;;5013703;28;20387;-87
2023/04/01 13:48:56;;;;;;;1.70;1.60;;;9.50;99.90;;;;;;5013379;28;20639;-87